sensor_id;sensor_type;location;lat;lon;timestamp;P1;durP1;ratioP1;P2;durP2;ratioP2
19339;SDS011;9804;52.350;6.684;2022-11-20T00:01:39;31.03;;;17.30;;
19339;SDS011;9804;52.350;6.684;2022-11-20T00:04:05;31.30;;;16.90;;
19339;SDS011;9804;52.350;6.684;2022-11-20T00:06:31;32.03;;;16.60;;
19339;SDS011;9804;52.350;6.684;2022-11-20T00:08:57;29.50;;;16.00;;
19339;SDS011;9804;52.350;6.684;2022-11-20T00:11:25;29.23;;;16.00;;
19339;SDS011;9804;52.350;6.684;2022-11-20T00:13:53;28.80;;;16.43;;
19339;SDS011;9804;52.350;6.684;2022-11-20T00:16:21;29.57;;;16.23;;
19339;SDS011;9804;52.350;6.684;2022-11-20T00:18:48;28.97;;;16.27;;
19339;SDS011;9804;52.350;6.684;2022-11-20T00:21:18;30.33;;;16.20;;
19339;SDS011;9804;52.350;6.684;2022-11-20T00:23:48;32.30;;;16.27;;
19339;SDS011;9804;52.350;6.684;2022-11-20T00:26:15;30.03;;;16.53;;
19339;SDS011;9804;52.350;6.684;2022-11-20T00:28:42;32.20;;;16.20;;
19339;SDS011;9804;52.350;6.684;2022-11-20T00:31:12;32.83;;;17.07;;
19339;SDS011;9804;52.350;6.684;2022-11-20T00:33:39;29.43;;;15.80;;
19339;SDS011;9804;52.350;6.684;2022-11-20T00:36:05;30.17;;;17.13;;
19339;SDS011;9804;52.350;6.684;2022-11-20T00:38:33;32.67;;;17.40;;
19339;SDS011;9804;52.350;6.684;2022-11-20T00:41:00;29.53;;;17.30;;
19339;SDS011;9804;52.350;6.684;2022-11-20T00:43:26;32.90;;;16.77;;
19339;SDS011;9804;52.350;6.684;2022-11-20T00:48:51;36.87;;;19.07;;
19339;SDS011;9804;52.350;6.684;2022-11-20T00:51:18;38.23;;;19.27;;
19339;SDS011;9804;52.350;6.684;2022-11-20T00:53:45;36.60;;;18.93;;
19339;SDS011;9804;52.350;6.684;2022-11-20T00:56:11;41.70;;;20.00;;
19339;SDS011;9804;52.350;6.684;2022-11-20T00:58:40;35.70;;;15.27;;
19339;SDS011;9804;52.350;6.684;2022-11-20T01:01:16;36.60;;;14.47;;
19339;SDS011;9804;52.350;6.684;2022-11-20T01:03:47;40.73;;;16.07;;
19339;SDS011;9804;52.350;6.684;2022-11-20T01:08:50;31.73;;;12.70;;
19339;SDS011;9804;52.350;6.684;2022-11-20T01:11:19;34.90;;;14.37;;
19339;SDS011;9804;52.350;6.684;2022-11-20T01:13:46;34.50;;;14.43;;
19339;SDS011;9804;52.350;6.684;2022-11-20T01:19:05;37.27;;;19.10;;
19339;SDS011;9804;52.350;6.684;2022-11-20T01:21:35;38.77;;;18.93;;
19339;SDS011;9804;52.350;6.684;2022-11-20T01:24:02;36.40;;;19.17;;
19339;SDS011;9804;52.350;6.684;2022-11-20T01:26:29;38.87;;;18.93;;
19339;SDS011;9804;52.350;6.684;2022-11-20T01:28:56;38.33;;;19.17;;
19339;SDS011;9804;52.350;6.684;2022-11-20T01:31:24;31.43;;;13.00;;
19339;SDS011;9804;52.350;6.684;2022-11-20T01:33:53;37.43;;;18.97;;
19339;SDS011;9804;52.350;6.684;2022-11-20T01:36:20;31.47;;;13.93;;
19339;SDS011;9804;52.350;6.684;2022-11-20T01:38:47;32.57;;;13.63;;
19339;SDS011;9804;52.350;6.684;2022-11-20T01:41:13;32.30;;;14.37;;
19339;SDS011;9804;52.350;6.684;2022-11-20T01:43:59;33.53;;;16.83;;
19339;SDS011;9804;52.350;6.684;2022-11-20T01:46:25;35.10;;;17.87;;
19339;SDS011;9804;52.350;6.684;2022-11-20T01:48:52;35.50;;;17.47;;
19339;SDS011;9804;52.350;6.684;2022-11-20T01:51:24;32.03;;;17.33;;
19339;SDS011;9804;52.350;6.684;2022-11-20T01:53:58;34.07;;;18.37;;
19339;SDS011;9804;52.350;6.684;2022-11-20T01:56:28;32.37;;;17.33;;
19339;SDS011;9804;52.350;6.684;2022-11-20T01:58:56;30.60;;;16.33;;
19339;SDS011;9804;52.350;6.684;2022-11-20T02:01:25;30.40;;;16.73;;
19339;SDS011;9804;52.350;6.684;2022-11-20T02:03:51;32.63;;;17.10;;
19339;SDS011;9804;52.350;6.684;2022-11-20T02:06:24;29.47;;;17.03;;
19339;SDS011;9804;52.350;6.684;2022-11-20T02:08:52;32.33;;;17.43;;
19339;SDS011;9804;52.350;6.684;2022-11-20T02:11:19;33.43;;;17.87;;
19339;SDS011;9804;52.350;6.684;2022-11-20T02:13:44;31.37;;;17.67;;
19339;SDS011;9804;52.350;6.684;2022-11-20T02:16:15;34.83;;;17.83;;
19339;SDS011;9804;52.350;6.684;2022-11-20T02:18:49;32.97;;;18.00;;
19339;SDS011;9804;52.350;6.684;2022-11-20T02:24:17;33.97;;;17.13;;
19339;SDS011;9804;52.350;6.684;2022-11-20T02:26:49;33.30;;;16.87;;
19339;SDS011;9804;52.350;6.684;2022-11-20T02:29:16;30.10;;;16.00;;
19339;SDS011;9804;52.350;6.684;2022-11-20T02:31:46;32.20;;;16.93;;
19339;SDS011;9804;52.350;6.684;2022-11-20T02:34:12;31.20;;;17.27;;
19339;SDS011;9804;52.350;6.684;2022-11-20T02:36:38;32.07;;;16.40;;
19339;SDS011;9804;52.350;6.684;2022-11-20T02:39:05;31.57;;;16.77;;
19339;SDS011;9804;52.350;6.684;2022-11-20T02:41:32;31.40;;;15.63;;
19339;SDS011;9804;52.350;6.684;2022-11-20T02:43:58;26.13;;;13.97;;
19339;SDS011;9804;52.350;6.684;2022-11-20T02:46:23;25.27;;;11.40;;
19339;SDS011;9804;52.350;6.684;2022-11-20T02:48:49;23.30;;;10.97;;
19339;SDS011;9804;52.350;6.684;2022-11-20T02:51:14;26.67;;;12.13;;
19339;SDS011;9804;52.350;6.684;2022-11-20T02:53:39;24.23;;;11.33;;
19339;SDS011;9804;52.350;6.684;2022-11-20T02:56:05;26.23;;;11.77;;
19339;SDS011;9804;52.350;6.684;2022-11-20T02:58:31;25.37;;;11.93;;
19339;SDS011;9804;52.350;6.684;2022-11-20T03:00:56;22.40;;;11.67;;
19339;SDS011;9804;52.350;6.684;2022-11-20T03:03:21;27.13;;;11.63;;
19339;SDS011;9804;52.350;6.684;2022-11-20T03:05:47;24.03;;;11.43;;
19339;SDS011;9804;52.350;6.684;2022-11-20T03:08:12;23.07;;;11.03;;
19339;SDS011;9804;52.350;6.684;2022-11-20T03:10:37;22.20;;;10.77;;
19339;SDS011;9804;52.350;6.684;2022-11-20T03:13:03;25.97;;;11.20;;
19339;SDS011;9804;52.350;6.684;2022-11-20T03:15:28;23.70;;;11.37;;
19339;SDS011;9804;52.350;6.684;2022-11-20T03:17:54;25.73;;;10.97;;
19339;SDS011;9804;52.350;6.684;2022-11-20T03:20:20;24.37;;;11.37;;
19339;SDS011;9804;52.350;6.684;2022-11-20T03:22:46;28.17;;;11.93;;
19339;SDS011;9804;52.350;6.684;2022-11-20T03:25:11;28.10;;;10.87;;
19339;SDS011;9804;52.350;6.684;2022-11-20T03:27:37;26.80;;;11.70;;
19339;SDS011;9804;52.350;6.684;2022-11-20T03:30:02;29.10;;;11.60;;
19339;SDS011;9804;52.350;6.684;2022-11-20T03:32:28;28.90;;;11.80;;
19339;SDS011;9804;52.350;6.684;2022-11-20T03:34:53;23.53;;;11.07;;
19339;SDS011;9804;52.350;6.684;2022-11-20T03:37:19;28.40;;;10.83;;
19339;SDS011;9804;52.350;6.684;2022-11-20T03:39:44;26.10;;;12.00;;
19339;SDS011;9804;52.350;6.684;2022-11-20T03:42:09;25.20;;;12.00;;
19339;SDS011;9804;52.350;6.684;2022-11-20T03:44:53;29.20;;;11.80;;
19339;SDS011;9804;52.350;6.684;2022-11-20T03:47:19;28.43;;;11.50;;
19339;SDS011;9804;52.350;6.684;2022-11-20T03:49:44;25.40;;;12.03;;
19339;SDS011;9804;52.350;6.684;2022-11-20T03:52:09;29.37;;;11.93;;
19339;SDS011;9804;52.350;6.684;2022-11-20T03:54:35;26.03;;;11.47;;
19339;SDS011;9804;52.350;6.684;2022-11-20T03:57:00;31.50;;;13.23;;
19339;SDS011;9804;52.350;6.684;2022-11-20T03:59:25;34.23;;;12.37;;
19339;SDS011;9804;52.350;6.684;2022-11-20T04:01:51;27.80;;;12.30;;
19339;SDS011;9804;52.350;6.684;2022-11-20T04:04:16;25.77;;;11.40;;
19339;SDS011;9804;52.350;6.684;2022-11-20T04:06:41;28.13;;;12.30;;
19339;SDS011;9804;52.350;6.684;2022-11-20T04:09:06;30.40;;;13.23;;
19339;SDS011;9804;52.350;6.684;2022-11-20T04:11:33;26.10;;;12.00;;
19339;SDS011;9804;52.350;6.684;2022-11-20T04:14:04;27.70;;;12.40;;
19339;SDS011;9804;52.350;6.684;2022-11-20T04:16:33;29.63;;;12.83;;
19339;SDS011;9804;52.350;6.684;2022-11-20T04:19:00;28.93;;;12.80;;
19339;SDS011;9804;52.350;6.684;2022-11-20T04:21:26;28.90;;;12.17;;
19339;SDS011;9804;52.350;6.684;2022-11-20T04:23:53;30.13;;;13.70;;
19339;SDS011;9804;52.350;6.684;2022-11-20T04:26:19;27.67;;;12.80;;
19339;SDS011;9804;52.350;6.684;2022-11-20T04:28:45;29.87;;;13.90;;
19339;SDS011;9804;52.350;6.684;2022-11-20T04:31:12;30.10;;;12.87;;
19339;SDS011;9804;52.350;6.684;2022-11-20T04:33:40;26.83;;;12.70;;
19339;SDS011;9804;52.350;6.684;2022-11-20T04:36:12;31.83;;;12.73;;
19339;SDS011;9804;52.350;6.684;2022-11-20T04:38:40;29.90;;;13.47;;
19339;SDS011;9804;52.350;6.684;2022-11-20T04:41:06;30.23;;;12.83;;
19339;SDS011;9804;52.350;6.684;2022-11-20T04:43:40;31.07;;;12.43;;
19339;SDS011;9804;52.350;6.684;2022-11-20T04:46:06;31.57;;;12.87;;
19339;SDS011;9804;52.350;6.684;2022-11-20T04:48:31;28.43;;;12.23;;
19339;SDS011;9804;52.350;6.684;2022-11-20T04:50:56;29.60;;;13.50;;
19339;SDS011;9804;52.350;6.684;2022-11-20T04:53:22;28.80;;;12.90;;
19339;SDS011;9804;52.350;6.684;2022-11-20T04:55:48;28.90;;;12.63;;
19339;SDS011;9804;52.350;6.684;2022-11-20T04:58:14;30.13;;;12.50;;
19339;SDS011;9804;52.350;6.684;2022-11-20T05:00:39;33.60;;;16.73;;
19339;SDS011;9804;52.350;6.684;2022-11-20T05:03:05;36.90;;;16.90;;
19339;SDS011;9804;52.350;6.684;2022-11-20T05:05:31;32.83;;;16.40;;
19339;SDS011;9804;52.350;6.684;2022-11-20T05:07:58;34.30;;;16.20;;
19339;SDS011;9804;52.350;6.684;2022-11-20T05:10:24;33.63;;;17.13;;
19339;SDS011;9804;52.350;6.684;2022-11-20T05:12:50;28.00;;;12.17;;
19339;SDS011;9804;52.350;6.684;2022-11-20T05:15:16;29.57;;;12.70;;
19339;SDS011;9804;52.350;6.684;2022-11-20T05:17:46;23.43;;;11.30;;
19339;SDS011;9804;52.350;6.684;2022-11-20T05:20:12;27.80;;;12.53;;
19339;SDS011;9804;52.350;6.684;2022-11-20T05:22:38;25.80;;;12.40;;
19339;SDS011;9804;52.350;6.684;2022-11-20T05:25:03;26.67;;;11.80;;
19339;SDS011;9804;52.350;6.684;2022-11-20T05:27:29;26.67;;;11.97;;
19339;SDS011;9804;52.350;6.684;2022-11-20T05:29:54;28.00;;;11.67;;
19339;SDS011;9804;52.350;6.684;2022-11-20T05:32:19;27.00;;;11.00;;
19339;SDS011;9804;52.350;6.684;2022-11-20T05:34:45;23.67;;;11.90;;
19339;SDS011;9804;52.350;6.684;2022-11-20T05:37:10;23.23;;;11.17;;
19339;SDS011;9804;52.350;6.684;2022-11-20T05:39:35;27.70;;;11.40;;
19339;SDS011;9804;52.350;6.684;2022-11-20T05:42:01;24.67;;;11.40;;
19339;SDS011;9804;52.350;6.684;2022-11-20T05:44:44;28.77;;;12.37;;
19339;SDS011;9804;52.350;6.684;2022-11-20T05:47:10;27.60;;;12.50;;
19339;SDS011;9804;52.350;6.684;2022-11-20T05:49:35;28.00;;;12.63;;
19339;SDS011;9804;52.350;6.684;2022-11-20T05:52:00;30.23;;;12.37;;
19339;SDS011;9804;52.350;6.684;2022-11-20T05:54:25;26.30;;;11.60;;
19339;SDS011;9804;52.350;6.684;2022-11-20T05:56:51;28.13;;;13.47;;
19339;SDS011;9804;52.350;6.684;2022-11-20T05:59:16;26.43;;;11.57;;
19339;SDS011;9804;52.350;6.684;2022-11-20T06:01:41;27.40;;;11.90;;
19339;SDS011;9804;52.350;6.684;2022-11-20T06:04:07;23.80;;;11.70;;
19339;SDS011;9804;52.350;6.684;2022-11-20T06:06:32;23.00;;;9.83;;
19339;SDS011;9804;52.350;6.684;2022-11-20T06:08:57;22.40;;;11.60;;
19339;SDS011;9804;52.350;6.684;2022-11-20T06:11:24;26.57;;;11.43;;
19339;SDS011;9804;52.350;6.684;2022-11-20T06:13:49;26.17;;;11.93;;
19339;SDS011;9804;52.350;6.684;2022-11-20T06:16:15;30.50;;;12.40;;
19339;SDS011;9804;52.350;6.684;2022-11-20T06:18:43;28.53;;;11.90;;
19339;SDS011;9804;52.350;6.684;2022-11-20T06:21:10;24.10;;;11.33;;
19339;SDS011;9804;52.350;6.684;2022-11-20T06:23:37;24.60;;;10.77;;
19339;SDS011;9804;52.350;6.684;2022-11-20T06:26:03;24.70;;;11.60;;
19339;SDS011;9804;52.350;6.684;2022-11-20T06:28:33;28.90;;;11.30;;
19339;SDS011;9804;52.350;6.684;2022-11-20T06:30:58;24.90;;;11.60;;
19339;SDS011;9804;52.350;6.684;2022-11-20T06:33:24;24.30;;;11.83;;
19339;SDS011;9804;52.350;6.684;2022-11-20T06:35:50;25.07;;;12.23;;
19339;SDS011;9804;52.350;6.684;2022-11-20T06:38:15;25.33;;;11.67;;
19339;SDS011;9804;52.350;6.684;2022-11-20T06:40:41;26.83;;;11.27;;
19339;SDS011;9804;52.350;6.684;2022-11-20T06:43:07;34.07;;;12.50;;
19339;SDS011;9804;52.350;6.684;2022-11-20T06:45:33;29.47;;;11.57;;
19339;SDS011;9804;52.350;6.684;2022-11-20T06:47:59;25.07;;;11.20;;
19339;SDS011;9804;52.350;6.684;2022-11-20T06:50:24;27.57;;;11.60;;
19339;SDS011;9804;52.350;6.684;2022-11-20T06:52:49;29.20;;;11.57;;
19339;SDS011;9804;52.350;6.684;2022-11-20T06:55:15;27.37;;;10.87;;
19339;SDS011;9804;52.350;6.684;2022-11-20T06:57:40;25.30;;;11.37;;
19339;SDS011;9804;52.350;6.684;2022-11-20T07:00:05;28.30;;;12.43;;
19339;SDS011;9804;52.350;6.684;2022-11-20T07:02:31;26.70;;;12.33;;
19339;SDS011;9804;52.350;6.684;2022-11-20T07:04:56;25.07;;;11.43;;
19339;SDS011;9804;52.350;6.684;2022-11-20T07:07:22;26.63;;;11.73;;
19339;SDS011;9804;52.350;6.684;2022-11-20T07:09:47;34.77;;;16.37;;
19339;SDS011;9804;52.350;6.684;2022-11-20T07:12:12;33.13;;;15.90;;
19339;SDS011;9804;52.350;6.684;2022-11-20T07:14:38;26.00;;;11.80;;
19339;SDS011;9804;52.350;6.684;2022-11-20T07:17:03;27.57;;;11.57;;
19339;SDS011;9804;52.350;6.684;2022-11-20T07:19:28;27.63;;;11.90;;
19339;SDS011;9804;52.350;6.684;2022-11-20T07:21:54;27.40;;;11.67;;
19339;SDS011;9804;52.350;6.684;2022-11-20T07:24:19;25.13;;;11.90;;
19339;SDS011;9804;52.350;6.684;2022-11-20T07:26:46;25.83;;;11.67;;
19339;SDS011;9804;52.350;6.684;2022-11-20T07:29:14;28.57;;;12.50;;
19339;SDS011;9804;52.350;6.684;2022-11-20T07:31:39;26.93;;;12.10;;
19339;SDS011;9804;52.350;6.684;2022-11-20T07:34:05;26.07;;;12.00;;
19339;SDS011;9804;52.350;6.684;2022-11-20T07:36:30;25.00;;;11.90;;
19339;SDS011;9804;52.350;6.684;2022-11-20T07:38:55;29.83;;;12.57;;
19339;SDS011;9804;52.350;6.684;2022-11-20T07:41:21;28.53;;;12.20;;
19339;SDS011;9804;52.350;6.684;2022-11-20T07:43:46;28.87;;;12.17;;
19339;SDS011;9804;52.350;6.684;2022-11-20T07:46:11;27.37;;;12.13;;
19339;SDS011;9804;52.350;6.684;2022-11-20T07:48:37;28.97;;;12.07;;
19339;SDS011;9804;52.350;6.684;2022-11-20T07:51:02;29.73;;;12.57;;
19339;SDS011;9804;52.350;6.684;2022-11-20T07:53:27;30.43;;;12.60;;
19339;SDS011;9804;52.350;6.684;2022-11-20T07:55:53;27.87;;;12.90;;
19339;SDS011;9804;52.350;6.684;2022-11-20T07:58:19;29.30;;;12.93;;
19339;SDS011;9804;52.350;6.684;2022-11-20T08:00:45;29.67;;;13.53;;
19339;SDS011;9804;52.350;6.684;2022-11-20T08:03:10;33.53;;;14.07;;
19339;SDS011;9804;52.350;6.684;2022-11-20T08:05:35;31.03;;;14.73;;
19339;SDS011;9804;52.350;6.684;2022-11-20T08:08:02;29.10;;;13.87;;
19339;SDS011;9804;52.350;6.684;2022-11-20T08:10:27;30.40;;;13.77;;
19339;SDS011;9804;52.350;6.684;2022-11-20T08:12:53;27.90;;;13.83;;
19339;SDS011;9804;52.350;6.684;2022-11-20T08:15:37;31.53;;;13.20;;
19339;SDS011;9804;52.350;6.684;2022-11-20T08:18:07;29.53;;;14.27;;
19339;SDS011;9804;52.350;6.684;2022-11-20T08:20:34;26.87;;;12.73;;
19339;SDS011;9804;52.350;6.684;2022-11-20T08:23:00;26.27;;;13.93;;
19339;SDS011;9804;52.350;6.684;2022-11-20T08:25:28;29.83;;;14.87;;
19339;SDS011;9804;52.350;6.684;2022-11-20T08:27:56;27.13;;;13.10;;
19339;SDS011;9804;52.350;6.684;2022-11-20T08:30:22;30.50;;;14.33;;
19339;SDS011;9804;52.350;6.684;2022-11-20T08:32:48;30.23;;;14.20;;
19339;SDS011;9804;52.350;6.684;2022-11-20T08:35:13;29.10;;;15.07;;
19339;SDS011;9804;52.350;6.684;2022-11-20T08:37:38;36.97;;;16.57;;
19339;SDS011;9804;52.350;6.684;2022-11-20T08:40:06;34.40;;;17.47;;
19339;SDS011;9804;52.350;6.684;2022-11-20T08:42:35;37.93;;;16.67;;
19339;SDS011;9804;52.350;6.684;2022-11-20T08:45:00;33.80;;;15.77;;
19339;SDS011;9804;52.350;6.684;2022-11-20T08:47:26;35.77;;;15.87;;
19339;SDS011;9804;52.350;6.684;2022-11-20T08:49:51;39.13;;;16.80;;
19339;SDS011;9804;52.350;6.684;2022-11-20T08:52:16;30.93;;;15.70;;
19339;SDS011;9804;52.350;6.684;2022-11-20T08:54:42;33.50;;;15.67;;
19339;SDS011;9804;52.350;6.684;2022-11-20T08:57:07;30.53;;;15.90;;
19339;SDS011;9804;52.350;6.684;2022-11-20T08:59:32;31.37;;;14.80;;
19339;SDS011;9804;52.350;6.684;2022-11-20T09:01:58;34.77;;;15.30;;
19339;SDS011;9804;52.350;6.684;2022-11-20T09:04:23;35.53;;;15.83;;
19339;SDS011;9804;52.350;6.684;2022-11-20T09:06:48;32.07;;;15.83;;
19339;SDS011;9804;52.350;6.684;2022-11-20T09:09:16;29.30;;;15.00;;
19339;SDS011;9804;52.350;6.684;2022-11-20T09:11:42;35.70;;;17.03;;
19339;SDS011;9804;52.350;6.684;2022-11-20T09:14:07;37.60;;;17.07;;
19339;SDS011;9804;52.350;6.684;2022-11-20T09:16:33;33.70;;;16.53;;
19339;SDS011;9804;52.350;6.684;2022-11-20T09:18:58;34.97;;;17.43;;
19339;SDS011;9804;52.350;6.684;2022-11-20T09:21:23;36.80;;;18.70;;
19339;SDS011;9804;52.350;6.684;2022-11-20T09:23:49;37.80;;;19.27;;
19339;SDS011;9804;52.350;6.684;2022-11-20T09:26:14;37.40;;;19.37;;
19339;SDS011;9804;52.350;6.684;2022-11-20T09:28:40;35.07;;;18.30;;
19339;SDS011;9804;52.350;6.684;2022-11-20T09:31:06;35.20;;;19.23;;
19339;SDS011;9804;52.350;6.684;2022-11-20T09:33:32;36.87;;;19.53;;
19339;SDS011;9804;52.350;6.684;2022-11-20T09:35:57;33.33;;;17.40;;
19339;SDS011;9804;52.350;6.684;2022-11-20T09:38:23;35.77;;;19.80;;
19339;SDS011;9804;52.350;6.684;2022-11-20T09:40:54;32.60;;;18.13;;
19339;SDS011;9804;52.350;6.684;2022-11-20T09:43:37;36.50;;;19.27;;
19339;SDS011;9804;52.350;6.684;2022-11-20T09:46:30;31.73;;;16.37;;
19339;SDS011;9804;52.350;6.684;2022-11-20T09:55:11;34.60;;;17.23;;
19339;SDS011;9804;52.350;6.684;2022-11-20T09:57:42;30.00;;;16.60;;
19339;SDS011;9804;52.350;6.684;2022-11-20T10:00:11;34.77;;;18.00;;
19339;SDS011;9804;52.350;6.684;2022-11-20T10:02:50;32.20;;;17.13;;
19339;SDS011;9804;52.350;6.684;2022-11-20T10:05:38;30.13;;;17.77;;
19339;SDS011;9804;52.350;6.684;2022-11-20T10:08:19;31.77;;;17.60;;
19339;SDS011;9804;52.350;6.684;2022-11-20T10:10:52;29.17;;;17.47;;
19339;SDS011;9804;52.350;6.684;2022-11-20T10:13:34;30.10;;;17.27;;
19339;SDS011;9804;52.350;6.684;2022-11-20T10:16:23;33.43;;;17.33;;
19339;SDS011;9804;52.350;6.684;2022-11-20T10:19:07;32.47;;;17.37;;
19339;SDS011;9804;52.350;6.684;2022-11-20T10:21:49;30.40;;;16.33;;
19339;SDS011;9804;52.350;6.684;2022-11-20T10:24:26;26.53;;;15.93;;
19339;SDS011;9804;52.350;6.684;2022-11-20T10:30:01;27.87;;;15.67;;
19339;SDS011;9804;52.350;6.684;2022-11-20T10:32:42;25.80;;;15.63;;
19339;SDS011;9804;52.350;6.684;2022-11-20T10:37:57;27.03;;;15.87;;
19339;SDS011;9804;52.350;6.684;2022-11-20T10:40:33;25.43;;;16.10;;
19339;SDS011;9804;52.350;6.684;2022-11-20T10:43:04;23.40;;;14.43;;
19339;SDS011;9804;52.350;6.684;2022-11-20T10:48:15;24.63;;;13.87;;
19339;SDS011;9804;52.350;6.684;2022-11-20T10:54:02;23.67;;;13.53;;
19339;SDS011;9804;52.350;6.684;2022-11-20T10:56:51;25.23;;;14.00;;
19339;SDS011;9804;52.350;6.684;2022-11-20T10:59:38;24.43;;;13.57;;
19339;SDS011;9804;52.350;6.684;2022-11-20T11:02:54;25.67;;;13.00;;
19339;SDS011;9804;52.350;6.684;2022-11-20T11:05:22;23.10;;;13.50;;
19339;SDS011;9804;52.350;6.684;2022-11-20T11:07:49;25.70;;;13.47;;
19339;SDS011;9804;52.350;6.684;2022-11-20T11:10:19;21.30;;;13.13;;
19339;SDS011;9804;52.350;6.684;2022-11-20T11:12:49;22.70;;;13.87;;
19339;SDS011;9804;52.350;6.684;2022-11-20T11:15:24;24.23;;;13.60;;
19339;SDS011;9804;52.350;6.684;2022-11-20T11:17:51;25.17;;;14.43;;
19339;SDS011;9804;52.350;6.684;2022-11-20T11:20:18;25.77;;;14.87;;
19339;SDS011;9804;52.350;6.684;2022-11-20T11:22:46;23.60;;;13.93;;
19339;SDS011;9804;52.350;6.684;2022-11-20T11:25:29;24.00;;;13.07;;
19339;SDS011;9804;52.350;6.684;2022-11-20T11:28:01;22.53;;;13.53;;
19339;SDS011;9804;52.350;6.684;2022-11-20T11:30:29;23.07;;;14.27;;
19339;SDS011;9804;52.350;6.684;2022-11-20T11:33:05;22.60;;;13.67;;
19339;SDS011;9804;52.350;6.684;2022-11-20T11:35:38;23.27;;;13.63;;
19339;SDS011;9804;52.350;6.684;2022-11-20T11:38:13;23.87;;;13.80;;
19339;SDS011;9804;52.350;6.684;2022-11-20T11:41:06;23.67;;;14.73;;
19339;SDS011;9804;52.350;6.684;2022-11-20T11:43:35;23.80;;;14.27;;
19339;SDS011;9804;52.350;6.684;2022-11-20T11:48:55;25.70;;;15.17;;
19339;SDS011;9804;52.350;6.684;2022-11-20T11:51:23;24.17;;;14.57;;
19339;SDS011;9804;52.350;6.684;2022-11-20T11:54:02;25.10;;;15.23;;
19339;SDS011;9804;52.350;6.684;2022-11-20T11:56:30;24.33;;;15.37;;
19339;SDS011;9804;52.350;6.684;2022-11-20T11:58:58;23.07;;;15.13;;
19339;SDS011;9804;52.350;6.684;2022-11-20T12:01:43;22.23;;;14.87;;
19339;SDS011;9804;52.350;6.684;2022-11-20T12:07:00;22.57;;;14.33;;
19339;SDS011;9804;52.350;6.684;2022-11-20T12:09:33;24.63;;;14.23;;
19339;SDS011;9804;52.350;6.684;2022-11-20T12:12:08;22.07;;;14.37;;
19339;SDS011;9804;52.350;6.684;2022-11-20T12:14:40;19.17;;;13.10;;
19339;SDS011;9804;52.350;6.684;2022-11-20T12:17:10;24.77;;;13.70;;
19339;SDS011;9804;52.350;6.684;2022-11-20T12:19:37;22.80;;;14.00;;
19339;SDS011;9804;52.350;6.684;2022-11-20T12:25:09;19.63;;;12.70;;
19339;SDS011;9804;52.350;6.684;2022-11-20T12:30:28;17.37;;;11.90;;
19339;SDS011;9804;52.350;6.684;2022-11-20T12:38:26;18.37;;;12.20;;
19339;SDS011;9804;52.350;6.684;2022-11-20T12:47:26;17.07;;;10.90;;
19339;SDS011;9804;52.350;6.684;2022-11-20T12:53:05;14.97;;;9.90;;
19339;SDS011;9804;52.350;6.684;2022-11-20T12:55:50;14.27;;;9.53;;
19339;SDS011;9804;52.350;6.684;2022-11-20T13:00:54;15.48;;;11.65;;
19339;SDS011;9804;52.350;6.684;2022-11-20T13:03:34;16.30;;;10.40;;
19339;SDS011;9804;52.350;6.684;2022-11-20T13:08:41;15.07;;;10.20;;
19339;SDS011;9804;52.350;6.684;2022-11-20T13:16:33;15.13;;;9.80;;
19339;SDS011;9804;52.350;6.684;2022-11-20T13:19:09;15.43;;;10.40;;
19339;SDS011;9804;52.350;6.684;2022-11-20T13:21:41;15.00;;;9.70;;
19339;SDS011;9804;52.350;6.684;2022-11-20T13:24:30;15.17;;;10.10;;
19339;SDS011;9804;52.350;6.684;2022-11-20T13:29:33;15.37;;;10.13;;
19339;SDS011;9804;52.350;6.684;2022-11-20T13:32:04;14.93;;;9.97;;
19339;SDS011;9804;52.350;6.684;2022-11-20T13:34:54;16.60;;;10.43;;
19339;SDS011;9804;52.350;6.684;2022-11-20T13:37:29;16.80;;;10.87;;
19339;SDS011;9804;52.350;6.684;2022-11-20T13:42:44;13.77;;;9.60;;
19339;SDS011;9804;52.350;6.684;2022-11-20T13:45:29;15.50;;;9.67;;
19339;SDS011;9804;52.350;6.684;2022-11-20T13:47:56;15.43;;;9.57;;
19339;SDS011;9804;52.350;6.684;2022-11-20T13:53:13;13.53;;;9.20;;
19339;SDS011;9804;52.350;6.684;2022-11-20T13:58:36;15.13;;;10.43;;
19339;SDS011;9804;52.350;6.684;2022-11-20T14:01:17;15.87;;;9.30;;
19339;SDS011;9804;52.350;6.684;2022-11-20T14:03:51;16.23;;;10.70;;
19339;SDS011;9804;52.350;6.684;2022-11-20T14:06:26;14.90;;;9.97;;
19339;SDS011;9804;52.350;6.684;2022-11-20T14:08:57;16.80;;;10.67;;
19339;SDS011;9804;52.350;6.684;2022-11-20T14:11:24;15.97;;;9.73;;
19339;SDS011;9804;52.350;6.684;2022-11-20T14:16:22;15.50;;;9.83;;
19339;SDS011;9804;52.350;6.684;2022-11-20T14:18:48;16.67;;;10.37;;
19339;SDS011;9804;52.350;6.684;2022-11-20T14:21:27;16.70;;;10.07;;
19339;SDS011;9804;52.350;6.684;2022-11-20T14:24:04;17.10;;;10.30;;
19339;SDS011;9804;52.350;6.684;2022-11-20T14:26:30;15.67;;;10.03;;
19339;SDS011;9804;52.350;6.684;2022-11-20T14:28:56;15.57;;;10.10;;
19339;SDS011;9804;52.350;6.684;2022-11-20T14:31:25;18.67;;;10.77;;
19339;SDS011;9804;52.350;6.684;2022-11-20T14:33:52;18.77;;;11.00;;
19339;SDS011;9804;52.350;6.684;2022-11-20T14:36:19;18.03;;;10.67;;
19339;SDS011;9804;52.350;6.684;2022-11-20T14:38:48;20.57;;;11.30;;
19339;SDS011;9804;52.350;6.684;2022-11-20T14:41:18;20.57;;;11.43;;
19339;SDS011;9804;52.350;6.684;2022-11-20T14:43:53;22.30;;;12.07;;
19339;SDS011;9804;52.350;6.684;2022-11-20T14:46:21;22.13;;;12.13;;
19339;SDS011;9804;52.350;6.684;2022-11-20T14:48:49;20.80;;;12.53;;
19339;SDS011;9804;52.350;6.684;2022-11-20T14:54:15;21.57;;;12.63;;
19339;SDS011;9804;52.350;6.684;2022-11-20T14:57:02;20.20;;;12.20;;
19339;SDS011;9804;52.350;6.684;2022-11-20T14:59:32;21.87;;;12.50;;
19339;SDS011;9804;52.350;6.684;2022-11-20T15:02:06;20.43;;;12.17;;
19339;SDS011;9804;52.350;6.684;2022-11-20T15:04:45;20.93;;;13.13;;
19339;SDS011;9804;52.350;6.684;2022-11-20T15:07:25;21.17;;;12.60;;
19339;SDS011;9804;52.350;6.684;2022-11-20T15:10:35;25.13;;;13.73;;
19339;SDS011;9804;52.350;6.684;2022-11-20T15:12:51;23.60;;;13.90;;
19339;SDS011;9804;52.350;6.684;2022-11-20T15:15:23;23.63;;;13.80;;
19339;SDS011;9804;52.350;6.684;2022-11-20T15:18:18;22.80;;;13.43;;
19339;SDS011;9804;52.350;6.684;2022-11-20T15:20:46;23.33;;;13.30;;
19339;SDS011;9804;52.350;6.684;2022-11-20T15:23:13;24.00;;;13.93;;
19339;SDS011;9804;52.350;6.684;2022-11-20T15:25:40;26.03;;;14.30;;
19339;SDS011;9804;52.350;6.684;2022-11-20T15:28:12;26.30;;;14.80;;
19339;SDS011;9804;52.350;6.684;2022-11-20T15:30:42;29.50;;;15.00;;
19339;SDS011;9804;52.350;6.684;2022-11-20T15:33:08;28.00;;;15.60;;
19339;SDS011;9804;52.350;6.684;2022-11-20T15:35:34;26.77;;;15.90;;
19339;SDS011;9804;52.350;6.684;2022-11-20T15:38:00;26.57;;;15.43;;
19339;SDS011;9804;52.350;6.684;2022-11-20T15:40:25;25.43;;;15.17;;
19339;SDS011;9804;52.350;6.684;2022-11-20T15:42:50;26.57;;;15.17;;
19339;SDS011;9804;52.350;6.684;2022-11-20T15:45:29;26.67;;;15.23;;
19339;SDS011;9804;52.350;6.684;2022-11-20T15:48:03;30.37;;;15.93;;
19339;SDS011;9804;52.350;6.684;2022-11-20T15:50:36;31.37;;;16.30;;
19339;SDS011;9804;52.350;6.684;2022-11-20T15:53:04;26.30;;;15.47;;
19339;SDS011;9804;52.350;6.684;2022-11-20T15:55:30;30.70;;;16.83;;
19339;SDS011;9804;52.350;6.684;2022-11-20T15:57:55;30.80;;;16.53;;
19339;SDS011;9804;52.350;6.684;2022-11-20T16:00:21;26.60;;;15.50;;
19339;SDS011;9804;52.350;6.684;2022-11-20T16:02:46;34.40;;;16.77;;
19339;SDS011;9804;52.350;6.684;2022-11-20T16:05:11;29.77;;;17.77;;
19339;SDS011;9804;52.350;6.684;2022-11-20T16:07:38;33.77;;;17.07;;
19339;SDS011;9804;52.350;6.684;2022-11-20T16:10:03;32.33;;;17.97;;